Lawn Ridge, Illinois
Current Conditions -  °F | °C
As of 7:35 AM on Sunday 23 Nov 2014 (Local Time) from KC75 Reporting Station
Drizzle Drizzle  
Wind Chill: 51°   Ceiling: 9000
Heat Index: 51°   Visibility: 10mi
Dew Point: 44°   Wind: 10mph
Humidity: 77%   Direction: 190°S
Pressure: 29.7"   Gusts: NA
Location:  40.9686°N, 89.597°W
Report Text: KC75 231335Z AUTO 19009KT 10SM -DZ SCT065 SCT075 OVC090 10/07 A2970 RMK AO2 T01030065
Loading
Personal Weather Stations






























Interactive Weather Map New forecast layout! Learn more

10-Day Weather Forecast

Advertisements
Track Severe Weather on mobile